createdAt,value
2019-05-13T00:01:25.253Z,103906.75
2019-05-13T00:03:57.502Z,103909.89
2019-05-13T00:06:34.134Z,103908.86
2019-05-13T00:09:05.724Z,103903.89
2019-05-13T00:11:37.955Z,103907.69
2019-05-13T00:14:10.210Z,103910.28
2019-05-13T00:16:44.711Z,103909.75
2019-05-13T00:19:16.385Z,103907.15
2019-05-13T00:21:48.583Z,103915.86
2019-05-13T00:24:20.785Z,103911.58
2019-05-13T00:26:53.284Z,103916.39
2019-05-13T00:29:25.490Z,103912.20
2019-05-13T00:31:57.692Z,103913.39
2019-05-13T00:34:29.946Z,103921.56
2019-05-13T00:37:08.885Z,103913.12
2019-05-13T00:39:36.073Z,103911.14
2019-05-13T00:42:08.268Z,103917.38
2019-05-13T00:44:40.494Z,103915.81
2019-05-13T00:47:13.294Z,103914.52
2019-05-13T00:49:45.660Z,103908.77
2019-05-13T00:52:17.907Z,103910.98
2019-05-13T00:54:50.114Z,103911.87
2019-05-13T00:57:23.813Z,103914.96
2019-05-13T00:59:57.122Z,103911.83
2019-05-13T01:02:29.350Z,103917.30
2019-05-13T01:05:04.137Z,103912.33
2019-05-13T01:07:35.517Z,103911.45
2019-05-13T01:10:07.755Z,103917.03
2019-05-13T01:12:40.151Z,103917.27
2019-05-13T01:15:13.494Z,103921.16
2019-05-13T01:17:46.041Z,103917.75
2019-05-13T01:20:18.285Z,103911.64
2019-05-13T01:22:50.477Z,103919.59
2019-05-13T01:25:24.417Z,103923.06
2019-05-13T01:27:56.621Z,103928.26
2019-05-13T01:30:28.878Z,103923.18
2019-05-13T01:33:01.104Z,103931.50
2019-05-13T01:35:34.207Z,103926.64
2019-05-13T01:38:06.878Z,103926.34
2019-05-13T01:40:39.131Z,103923.58
2019-05-13T01:43:14.132Z,103926.27
2019-05-13T01:45:45.286Z,103927.91
2019-05-13T01:48:17.499Z,103929.08
2019-05-13T01:50:49.719Z,103935.19
2019-05-13T01:53:24.539Z,103938.93
2019-05-13T01:55:56.877Z,103939.69
2019-05-13T01:58:29.120Z,103939.69
2019-05-13T02:01:01.388Z,103943.08
2019-05-13T02:03:33.989Z,103938.27
2019-05-13T02:06:06.581Z,103937.35
2019-05-13T02:08:38.784Z,103940.33
2019-05-13T02:11:13.179Z,103940.21
2019-05-13T02:13:44.969Z,103934.33
2019-05-13T02:16:17.206Z,103931.34
2019-05-13T02:18:49.473Z,103924.55
2019-05-13T02:21:23.948Z,103927.78
2019-05-13T02:23:55.705Z,103929.55
2019-05-13T02:26:27.975Z,103927.70
2019-05-13T02:29:00.171Z,103924.30
2019-05-13T02:31:45.957Z,103927.15
2019-05-13T02:34:06.323Z,103923.64
2019-05-13T02:36:38.538Z,103925.06
2019-05-13T02:39:12.878Z,103927.27
2019-05-13T02:41:44.725Z,103925.86
2019-05-13T02:44:16.960Z,103933.36
2019-05-13T02:46:52.296Z,103927.86
2019-05-13T02:49:23.406Z,103928.88
2019-05-13T02:51:55.708Z,103929.03
2019-05-13T02:54:27.969Z,103936.94
2019-05-13T02:57:03.292Z,103928.65
2019-05-13T02:59:34.183Z,103933.05
2019-05-13T03:02:06.372Z,103935.64
2019-05-13T03:04:38.605Z,103929.25
2019-05-13T03:07:11.951Z,103932.74
2019-05-13T03:09:44.434Z,103928.03
2019-05-13T03:12:16.707Z,103935.91
2019-05-13T03:14:48.975Z,103938.06
2019-05-13T03:17:22.299Z,103937.78
2019-05-13T03:19:54.886Z,103941.61
2019-05-13T03:22:27.325Z,103940.56
2019-05-13T03:25:02.853Z,103941.05
2019-05-13T03:27:34.043Z,103951.13
2019-05-13T03:30:06.397Z,103947.08
2019-05-13T03:32:46.156Z,103958.64
2019-05-13T03:35:16.384Z,103960.77
2019-05-13T03:37:46.458Z,103959.25
2019-05-13T03:40:18.651Z,103966.23
2019-05-13T03:42:53.575Z,103966.65
2019-05-13T03:45:24.839Z,103971.04
2019-05-13T03:47:58.121Z,103971.73
2019-05-13T03:50:34.217Z,103965.00
2019-05-13T03:53:04.285Z,103971.23
2019-05-13T03:55:36.510Z,103967.88
2019-05-13T03:58:08.718Z,103975.44
2019-05-13T04:00:42.617Z,103973.06
2019-05-13T04:03:14.900Z,103977.71
2019-05-13T04:05:47.165Z,103974.45
2019-05-13T04:08:22.446Z,103981.86
2019-05-13T04:10:53.349Z,103986.03
2019-05-13T04:13:25.605Z,103988.41
2019-05-13T04:15:57.804Z,103984.26
2019-05-13T04:18:32.014Z,103984.54
2019-05-13T04:21:03.959Z,103982.48
2019-05-13T04:23:36.448Z,103979.13
2019-05-13T04:26:08.656Z,103976.67
2019-05-13T04:28:43.454Z,103982.52
2019-05-13T04:31:14.874Z,103979.92
2019-05-13T04:33:47.138Z,103983.30
2019-05-13T04:36:19.393Z,103977.84
2019-05-13T04:38:53.068Z,103980.02
2019-05-13T04:41:25.439Z,103979.92
2019-05-13T04:43:57.685Z,103981.72
2019-05-13T04:46:32.806Z,103983.58
2019-05-13T04:49:03.869Z,103980.06
2019-05-13T04:51:36.083Z,103981.36
2019-05-13T04:54:08.310Z,103982.66
2019-05-13T04:56:42.197Z,103981.14
2019-05-13T04:59:14.451Z,103982.94
2019-05-13T05:01:57.871Z,103979.59
2019-05-13T05:04:28.459Z,103980.14
2019-05-13T05:06:54.652Z,103984.42
2019-05-13T05:09:29.157Z,103989.09
2019-05-13T05:12:02.248Z,103989.77
2019-05-13T05:14:35.772Z,103987.43
2019-05-13T05:17:12.241Z,103987.20
2019-05-13T05:19:47.217Z,103983.61
2019-05-13T05:22:17.081Z,103989.08
2019-05-13T05:24:51.877Z,103992.70
2019-05-13T05:27:23.269Z,103993.47
2019-05-13T05:29:55.324Z,103996.49
2019-05-13T05:32:27.797Z,103994.54
2019-05-13T05:35:02.340Z,103995.23
2019-05-13T05:37:34.567Z,103996.33
2019-05-13T05:40:08.841Z,103993.60
2019-05-13T05:42:41.326Z,103996.64
2019-05-13T05:45:13.622Z,103995.78
2019-05-13T05:47:45.845Z,104003.33
2019-05-13T05:50:18.058Z,104007.89
2019-05-13T05:52:51.357Z,104004.91
2019-05-13T05:55:23.970Z,104015.33
2019-05-13T05:57:58.227Z,104022.23
2019-05-13T06:00:32.346Z,104024.59
2019-05-13T06:03:04.572Z,104017.57
2019-05-13T06:05:36.794Z,104010.67
2019-05-13T06:08:11.303Z,104009.08
2019-05-13T06:10:49.918Z,104005.67
2019-05-13T06:13:17.067Z,104016.59
2019-05-13T06:15:51.429Z,104009.81
2019-05-13T06:18:23.225Z,104007.59
2019-05-13T06:20:55.424Z,104013.55
2019-05-13T06:23:27.692Z,104010.31
2019-05-13T06:26:01.894Z,104011.58
2019-05-13T06:28:34.048Z,104010.91
2019-05-13T06:31:06.271Z,104014.95
2019-05-13T06:33:38.529Z,104015.59
2019-05-13T06:36:11.372Z,104014.25
2019-05-13T06:38:43.914Z,104010.19
2019-05-13T06:41:16.134Z,104016.55
2019-05-13T06:43:48.355Z,104023.45
2019-05-13T06:46:21.851Z,104023.31
2019-05-13T06:48:54.216Z,104023.94
2019-05-13T06:51:26.490Z,104020.91
2019-05-13T06:53:58.698Z,104017.00
2019-05-13T06:56:32.273Z,104013.33
2019-05-13T06:59:04.839Z,104006.13
2019-05-13T07:01:37.073Z,104015.73
2019-05-13T07:04:11.631Z,104011.37
2019-05-13T07:06:45.299Z,104015.87
2019-05-13T07:09:17.575Z,104016.28
2019-05-13T07:11:51.862Z,104011.80
2019-05-13T07:14:23.746Z,104014.34
2019-05-13T07:16:55.959Z,104012.98
2019-05-13T07:19:28.205Z,104009.40
2019-05-13T07:22:02.927Z,104017.39
2019-05-13T07:24:34.347Z,104021.84
2019-05-13T07:27:06.620Z,104015.02
2019-05-13T07:29:38.934Z,104018.67
2019-05-13T07:32:12.006Z,104021.31
2019-05-13T07:34:44.758Z,104022.75
2019-05-13T07:37:16.805Z,104022.80
2019-05-13T07:39:49.016Z,104028.02
2019-05-13T07:42:22.241Z,104026.37
2019-05-13T07:44:54.846Z,104025.30
2019-05-13T07:47:27.083Z,104028.02
2019-05-13T07:50:02.190Z,104025.23
2019-05-13T07:52:33.246Z,104032.27
2019-05-13T07:55:05.464Z,104037.09
2019-05-13T07:57:37.723Z,104031.98
2019-05-13T08:00:12.244Z,104032.68
2019-05-13T08:02:43.980Z,104032.43
2019-05-13T08:05:16.183Z,104042.15
2019-05-13T08:07:48.435Z,104045.08
2019-05-13T08:10:21.948Z,104050.48
2019-05-13T08:12:54.366Z,104043.15
2019-05-13T08:15:26.597Z,104040.18
2019-05-13T08:18:01.810Z,104047.59
2019-05-13T08:20:33.044Z,104039.89
2019-05-13T08:23:05.330Z,104047.16
2019-05-13T08:25:37.596Z,104045.50
2019-05-13T08:28:12.025Z,104043.23
2019-05-13T08:30:43.762Z,104044.58
2019-05-13T08:33:15.965Z,104041.78
2019-05-13T08:35:53.914Z,104043.06
2019-05-13T08:38:23.058Z,104047.41
2019-05-13T08:40:55.550Z,104044.48
2019-05-13T08:43:27.829Z,104047.59
2019-05-13T08:46:01.897Z,104047.28
2019-05-13T08:48:34.202Z,104049.51
2019-05-13T08:51:06.434Z,104051.27
2019-05-13T08:53:38.701Z,104050.41
2019-05-13T08:56:12.207Z,104052.91
2019-05-13T08:58:44.577Z,104050.03
2019-05-13T09:01:16.758Z,104049.27
2019-05-13T09:03:48.957Z,104047.20
2019-05-13T09:06:22.128Z,104049.55
2019-05-13T09:08:54.844Z,104044.13
2019-05-13T09:11:27.125Z,104045.38
2019-05-13T09:14:02.418Z,104047.95
2019-05-13T09:16:34.821Z,104041.30
2019-05-13T09:19:08.111Z,104043.50
2019-05-13T09:21:42.309Z,104043.71
2019-05-13T09:24:24.532Z,104042.84
2019-05-13T09:26:52.443Z,104043.44
2019-05-13T09:29:24.200Z,104046.78
2019-05-13T09:31:56.581Z,104044.66
2019-05-13T09:34:32.519Z,104042.84
2019-05-13T09:37:04.017Z,104045.38
2019-05-13T09:39:36.234Z,104044.34
2019-05-13T09:42:08.467Z,104044.77
2019-05-13T09:44:41.966Z,104050.41
2019-05-13T09:47:14.415Z,104042.73
2019-05-13T09:49:46.681Z,104042.72
2019-05-13T09:52:18.708Z,104045.74
2019-05-13T09:54:52.308Z,104028.47
2019-05-13T09:57:24.840Z,104032.58
2019-05-13T09:59:57.096Z,104032.56
2019-05-13T10:02:31.882Z,104031.37
2019-05-13T10:05:03.248Z,104036.91
2019-05-13T10:07:35.533Z,104034.77
2019-05-13T10:10:07.734Z,104034.71
2019-05-13T10:12:42.511Z,104033.95
2019-05-13T10:15:13.933Z,104028.81
2019-05-13T10:17:46.215Z,104030.70
2019-05-13T10:20:18.421Z,104027.25
2019-05-13T10:22:52.681Z,104021.71
2019-05-13T10:25:24.566Z,104024.50
2019-05-13T10:27:57.027Z,104020.57
2019-05-13T10:30:29.243Z,104014.27
2019-05-13T10:33:02.865Z,104013.70
2019-05-13T10:35:35.331Z,104008.56
2019-05-13T10:38:07.581Z,104017.22
2019-05-13T10:40:39.789Z,104014.02
2019-05-13T10:43:27.088Z,104010.30
2019-05-13T10:45:45.962Z,104006.61
2019-05-13T10:48:18.160Z,104011.04
2019-05-13T10:50:52.917Z,104011.30
2019-05-13T10:53:25.538Z,104004.70
2019-05-13T10:55:58.097Z,104001.38
2019-05-13T10:58:30.307Z,104001.87
2019-05-13T11:01:03.203Z,103998.32
2019-05-13T11:03:35.522Z,103990.92
2019-05-13T11:06:07.783Z,103986.86
2019-05-13T11:08:42.266Z,103988.33
2019-05-13T11:11:13.962Z,103978.63
2019-05-13T11:13:55.063Z,103979.03
2019-05-13T11:16:22.621Z,103980.23
2019-05-13T11:18:55.076Z,103979.37
2019-05-13T11:21:27.298Z,103980.19
2019-05-13T11:23:59.505Z,103973.53
2019-05-13T11:26:36.169Z,103971.73
2019-05-13T11:29:05.671Z,103960.45
2019-05-13T11:31:37.917Z,103961.44
2019-05-13T11:34:10.127Z,103957.36
2019-05-13T11:36:43.324Z,103972.02
2019-05-13T11:39:15.747Z,103968.58
2019-05-13T11:41:48.026Z,103966.70
2019-05-13T11:44:22.551Z,103963.28
2019-05-13T11:46:54.238Z,103962.25
2019-05-13T11:49:26.421Z,103956.89
2019-05-13T11:51:58.678Z,103960.73
2019-05-13T11:54:30.894Z,103950.64
2019-05-13T11:57:06.358Z,103949.56
2019-05-13T11:59:37.045Z,103964.41
2019-05-13T12:02:13.228Z,103967.31
2019-05-13T12:04:44.196Z,103963.80
2019-05-13T12:07:16.699Z,103969.48
2019-05-13T12:09:51.308Z,103970.32
2019-05-13T12:12:30.683Z,103973.12
2019-05-13T12:15:27.015Z,103972.25
2019-05-13T12:17:35.178Z,103964.66
2019-05-13T12:20:07.957Z,103965.54
2019-05-13T12:22:42.590Z,103960.28
2019-05-13T12:25:15.864Z,103951.89
2019-05-13T12:27:51.363Z,103955.83
2019-05-13T12:30:23.176Z,103946.94
2019-05-13T12:32:56.002Z,103952.80
2019-05-13T12:35:32.247Z,103951.38
2019-05-13T12:38:03.726Z,103960.23
2019-05-13T12:40:36.606Z,103964.80
2019-05-13T12:43:12.636Z,103954.84
2019-05-13T12:45:44.249Z,103955.42
2019-05-13T12:48:17.151Z,103952.64
2019-05-13T12:50:52.955Z,103946.48
2019-05-13T12:53:25.554Z,103950.53
2019-05-13T12:55:58.356Z,103946.50
2019-05-13T12:58:33.845Z,103954.38
2019-05-13T13:01:05.533Z,103951.72
2019-05-13T13:03:38.409Z,103944.47
2019-05-13T13:06:27.151Z,103941.53
2019-05-13T13:08:49.243Z,103937.66
2019-05-13T13:11:22.825Z,103941.45
2019-05-13T13:13:59.345Z,103941.97
2019-05-13T13:16:34.282Z,103944.92
2019-05-13T13:19:03.900Z,103943.34
2019-05-13T13:21:37.969Z,103939.16
2019-05-13T13:24:12.310Z,103939.16
2019-05-13T13:26:45.440Z,103942.55
2019-05-13T13:29:19.052Z,103942.55
2019-05-13T13:31:55.675Z,103937.57
2019-05-13T13:34:26.556Z,103941.98
2019-05-13T13:36:59.539Z,103941.14
2019-05-13T13:39:32.494Z,103931.15
2019-05-13T13:42:06.129Z,103933.69
2019-05-13T13:44:39.045Z,103920.23
2019-05-13T13:47:14.671Z,103920.23
2019-05-13T13:49:46.636Z,103911.37
2019-05-13T13:52:19.548Z,103910.97
2019-05-13T13:55:02.037Z,103915.09
2019-05-13T13:57:27.234Z,103915.09
2019-05-13T14:00:32.936Z,103899.47
2019-05-13T14:02:37.326Z,103906.75
2019-05-13T14:05:12.525Z,103893.41
2019-05-13T14:07:43.608Z,103897.37
2019-05-13T14:10:16.331Z,103895.09
2019-05-13T14:12:52.285Z,103890.06
2019-05-13T14:15:23.643Z,103897.48
2019-05-13T14:17:55.938Z,103894.37
2019-05-13T14:20:28.140Z,103891.71
2019-05-13T14:23:02.810Z,103891.90
2019-05-13T14:25:34.421Z,103890.92
2019-05-13T14:28:06.714Z,103894.87
2019-05-13T14:30:39.051Z,103885.21
2019-05-13T14:33:11.877Z,103879.30
2019-05-13T14:35:44.486Z,103882.61
2019-05-13T14:38:16.718Z,103878.83
2019-05-13T14:40:51.892Z,103876.08
2019-05-13T14:43:25.726Z,103867.82
2019-05-13T14:45:58.135Z,103861.84
2019-05-13T14:48:32.992Z,103857.06
2019-05-13T14:51:04.586Z,103859.73
2019-05-13T14:53:36.880Z,103848.39
2019-05-13T14:56:09.363Z,103853.37
2019-05-13T14:58:41.923Z,103845.84
2019-05-13T15:01:19.207Z,103846.17
2019-05-13T15:03:48.647Z,103842.84
2019-05-13T15:06:22.140Z,103845.24
2019-05-13T15:08:54.597Z,103845.84
2019-05-13T15:11:26.828Z,103837.61
2019-05-13T15:13:59.083Z,103840.40
2019-05-13T15:16:31.971Z,103838.84
2019-05-13T15:19:04.595Z,103826.74
2019-05-13T15:21:36.857Z,103817.00
2019-05-13T15:24:09.075Z,103824.23
2019-05-13T15:26:42.244Z,103825.34
2019-05-13T15:29:14.677Z,103818.81
2019-05-13T15:31:46.942Z,103813.44
2019-05-13T15:34:19.176Z,103810.25
2019-05-13T15:36:51.583Z,103808.41
2019-05-13T15:39:24.214Z,103813.32
2019-05-13T15:41:56.468Z,103809.09
2019-05-13T15:44:32.394Z,103802.48
2019-05-13T15:47:18.207Z,103809.84
2019-05-13T15:49:37.763Z,103811.45
2019-05-13T15:52:11.775Z,103812.82
2019-05-13T15:54:43.917Z,103809.80
2019-05-13T15:57:16.182Z,103811.25
2019-05-13T15:59:48.488Z,103819.98
2019-05-13T16:02:22.670Z,103810.59
2019-05-13T16:05:01.296Z,103800.72
2019-05-13T16:07:29.004Z,103801.67
2019-05-13T16:10:02.088Z,103801.94
2019-05-13T16:12:35.430Z,103795.59
2019-05-13T16:15:07.663Z,103794.20
2019-05-13T16:17:44.488Z,103793.34
2019-05-13T16:20:14.019Z,103802.53
2019-05-13T16:22:46.233Z,103800.33
2019-05-13T16:25:18.673Z,103795.83
2019-05-13T16:27:52.061Z,103795.56
2019-05-13T16:30:24.399Z,103790.65
2019-05-13T16:32:56.670Z,103794.67
2019-05-13T16:35:31.715Z,103801.55
2019-05-13T16:38:03.005Z,103796.37
2019-05-13T16:40:36.666Z,103799.94
2019-05-13T16:43:12.727Z,103787.97
2019-05-13T16:45:44.269Z,103782.35
2019-05-13T16:48:16.612Z,103779.78
2019-05-13T16:50:48.840Z,103784.53
2019-05-13T16:53:25.648Z,103786.49
2019-05-13T16:55:55.015Z,103785.96
2019-05-13T16:58:27.287Z,103776.25
2019-05-13T17:01:02.195Z,103782.45
2019-05-13T17:03:33.540Z,103766.80
2019-05-13T17:06:05.853Z,103780.89
2019-05-13T17:08:38.901Z,103773.62
2019-05-13T17:11:11.845Z,103777.36
2019-05-13T17:13:44.817Z,103774.12
2019-05-13T17:16:17.782Z,103775.16
2019-05-13T17:18:52.065Z,103782.94
2019-05-13T17:21:24.147Z,103794.66
2019-05-13T17:23:56.389Z,103783.74
2019-05-13T17:26:29.243Z,103778.95
2019-05-13T17:29:01.576Z,103778.83
2019-05-13T17:31:33.844Z,103783.89
2019-05-13T17:34:06.197Z,103781.66
2019-05-13T17:36:41.724Z,103777.02
2019-05-13T17:39:13.574Z,103781.66
2019-05-13T17:41:45.880Z,103774.15
2019-05-13T17:44:18.866Z,103776.97
2019-05-13T17:46:52.204Z,103780.70
2019-05-13T17:49:24.577Z,103780.47
2019-05-13T17:51:56.686Z,103775.27
2019-05-13T17:54:31.840Z,103781.84
2019-05-13T17:57:03.928Z,103775.11
2019-05-13T17:59:36.220Z,103782.55
2019-05-13T18:02:08.453Z,103774.70
2019-05-13T18:04:41.483Z,103778.25
2019-05-13T18:07:14.332Z,103768.83
2019-05-13T18:09:46.560Z,103771.89
2019-05-13T18:12:18.763Z,103768.59
2019-05-13T18:14:51.687Z,103762.17
2019-05-13T18:17:24.225Z,103762.68
2019-05-13T18:19:56.603Z,103759.09
2019-05-13T18:22:31.188Z,103759.77
2019-05-13T18:25:03.441Z,103756.73
2019-05-13T18:27:35.709Z,103754.85
2019-05-13T18:30:07.961Z,103758.42
2019-05-13T18:32:40.169Z,103757.48
2019-05-13T18:35:12.462Z,103761.23
2019-05-13T18:37:44.689Z,103758.87
2019-05-13T18:40:16.894Z,103760.02
2019-05-13T18:42:51.325Z,103757.94
2019-05-13T18:45:23.336Z,103759.89
2019-05-13T18:47:56.078Z,103766.20
2019-05-13T18:50:31.291Z,103766.69
2019-05-13T18:53:03.305Z,103767.47
2019-05-13T18:55:35.534Z,103760.94
2019-05-13T18:58:07.941Z,103755.00
2019-05-13T19:00:41.593Z,103751.18
2019-05-13T19:03:15.047Z,103748.69
2019-05-13T19:05:47.310Z,103755.12
2019-05-13T19:08:21.441Z,103749.88
2019-05-13T19:10:53.595Z,103755.52
2019-05-13T19:13:25.891Z,103761.56
2019-05-13T19:15:58.269Z,103762.67
2019-05-13T19:18:32.054Z,103766.59
2019-05-13T19:21:05.777Z,103769.41
2019-05-13T19:23:38.184Z,103769.00
2019-05-13T19:26:11.293Z,103774.82
2019-05-13T19:28:43.795Z,103781.95
2019-05-13T19:31:16.022Z,103780.23
2019-05-13T19:33:48.303Z,103780.81
2019-05-13T19:36:21.106Z,103784.02
2019-05-13T19:38:53.478Z,103779.95
2019-05-13T19:41:25.758Z,103778.81
2019-05-13T19:43:57.989Z,103780.70
2019-05-13T19:46:31.404Z,103779.16
2019-05-13T19:49:03.851Z,103781.35
2019-05-13T19:51:36.164Z,103790.56
2019-05-13T19:54:08.395Z,103784.61
2019-05-13T19:56:40.646Z,103786.61
2019-05-13T19:59:12.936Z,103782.36
2019-05-13T20:01:45.177Z,103782.94
2019-05-13T20:04:17.436Z,103788.77
2019-05-13T20:06:51.794Z,103789.87
2019-05-13T20:09:24.030Z,103787.92
2019-05-13T20:11:56.901Z,103789.71
2019-05-13T20:14:29.770Z,103789.89
2019-05-13T20:17:01.964Z,103787.15
2019-05-13T20:19:46.519Z,103785.94
2019-05-13T20:22:11.627Z,103782.98
2019-05-13T20:24:45.027Z,103787.30
2019-05-13T20:27:17.350Z,103782.37
2019-05-13T20:29:51.224Z,103784.64
2019-05-13T20:32:25.589Z,103790.03
2019-05-13T20:34:57.842Z,103789.60
2019-05-13T20:37:32.042Z,103789.47
2019-05-13T20:40:04.128Z,103787.04
2019-05-13T20:42:36.409Z,103779.77
2019-05-13T20:45:08.640Z,103772.63
2019-05-13T20:47:42.060Z,103776.42
2019-05-13T20:50:14.524Z,103783.47
2019-05-13T20:52:46.729Z,103774.41
2019-05-13T20:55:18.956Z,103780.45
2019-05-13T20:57:53.068Z,103775.80
2019-05-13T21:00:25.153Z,103775.97
2019-05-13T21:02:57.446Z,103771.58
2019-05-13T21:05:31.922Z,103762.31
2019-05-13T21:08:03.748Z,103762.61
2019-05-13T21:10:36.055Z,103767.18
2019-05-13T21:13:08.293Z,103763.86
2019-05-13T21:15:42.418Z,103764.25
2019-05-13T21:18:14.450Z,103759.81
2019-05-13T21:20:46.659Z,103764.07
2019-05-13T21:23:19.063Z,103766.45
2019-05-13T21:25:51.400Z,103753.67
2019-05-13T21:28:23.663Z,103753.84
2019-05-13T21:30:55.891Z,103754.92
2019-05-13T21:33:28.127Z,103758.52
2019-05-13T21:36:01.709Z,103765.81
2019-05-13T21:38:34.346Z,103748.51
2019-05-13T21:41:06.826Z,103753.50
2019-05-13T21:43:41.296Z,103744.83
2019-05-13T21:46:13.067Z,103753.17
2019-05-13T21:48:46.437Z,103750.44
2019-05-13T21:51:19.004Z,103753.73
2019-05-13T21:53:51.911Z,103752.75
2019-05-13T21:56:24.360Z,103756.42
2019-05-13T21:58:56.437Z,103753.30
2019-05-13T22:01:31.333Z,103744.23
2019-05-13T22:04:02.657Z,103748.05
2019-05-13T22:06:34.962Z,103755.79
2019-05-13T22:09:07.202Z,103755.95
2019-05-13T22:11:41.787Z,103759.00
2019-05-13T22:14:13.414Z,103747.80
2019-05-13T22:16:47.644Z,103747.67
2019-05-13T22:19:22.318Z,103743.76
2019-05-13T22:21:54.638Z,103740.14
2019-05-13T22:24:26.886Z,103751.87
2019-05-13T22:26:59.103Z,103760.09
2019-05-13T22:29:32.057Z,103751.29
2019-05-13T22:32:04.715Z,103746.13
2019-05-13T22:34:36.949Z,103752.95
2019-05-13T22:37:11.493Z,103759.48
2019-05-13T22:39:43.146Z,103759.27
2019-05-13T22:42:15.372Z,103765.67
2019-05-13T22:44:47.624Z,103765.77
2019-05-13T22:47:21.983Z,103761.52
2019-05-13T22:49:56.827Z,103767.36
2019-05-13T22:52:27.911Z,103764.12
2019-05-13T22:55:02.317Z,103769.98
2019-05-13T22:57:34.214Z,103759.71
2019-05-13T23:00:06.461Z,103762.59
2019-05-13T23:02:42.153Z,103756.39
2019-05-13T23:05:14.259Z,103755.86
2019-05-13T23:07:46.525Z,103751.85
2019-05-13T23:10:18.724Z,103758.90
2019-05-13T23:12:51.629Z,103757.36
2019-05-13T23:15:23.984Z,103761.02
2019-05-13T23:17:56.274Z,103763.62
2019-05-13T23:20:28.478Z,103757.79
2019-05-13T23:23:01.304Z,103765.98
2019-05-13T23:25:33.727Z,103763.77
2019-05-13T23:28:06.162Z,103776.16
2019-05-13T23:30:38.409Z,103769.27
2019-05-13T23:33:11.617Z,103758.75
2019-05-13T23:35:44.146Z,103763.71
2019-05-13T23:38:16.193Z,103758.13
2019-05-13T23:40:48.468Z,103749.16
2019-05-13T23:43:21.709Z,103757.35
2019-05-13T23:45:54.084Z,103752.53
2019-05-13T23:48:26.356Z,103749.16
2019-05-13T23:50:58.574Z,103754.92
2019-05-13T23:53:31.548Z,103754.11
2019-05-13T23:56:04.030Z,103749.83
2019-05-13T23:58:36.279Z,103743.36
